NCAR-RAP Real-Time Weather Data

Output produced by METARs form (12 May 2021  12:36 UTC)
found at http://weather.rap.ucar.edu/surface/
 
KUIL 121153Z AUTO 00000KT 10SM OVC008 11/09 A3016 RMK AO2 SLP214 60000 T01060094 10111 20100 56001
KUIL 121135Z AUTO 00000KT 10SM BKN009 BKN090 11/09 A3016 RMK AO2 T01060094
KUIL 121112Z AUTO 03003KT 10SM SCT009 10/09 A3016 RMK AO2 T01000094
KUIL 121053Z AUTO 01003KT 10SM BKN009 10/09 A3016 RMK AO2 SLP215 T01000094
KUIL 121044Z AUTO 00000KT 10SM OVC009 11/09 A3017 RMK AO2 T01060094
KUIL 121011Z AUTO 36004KT 10SM OVC010 11/09 A3016 RMK AO2 T01060094
KUIL 120953Z AUTO 35003KT 10SM OVC009 11/10 A3016 RMK AO2 RAB0854E44 SLP213 P0000 T01060100
KUIL 120853Z AUTO 34004KT 10SM OVC007 11/10 A3017 RMK AO2 SLP216 60000 T01110100 58002
KUIL 120753Z AUTO 34004KT 10SM OVC006 11/10 A3017 RMK AO2 SLP218 T01110100 401610061
KUIL 120653Z AUTO 01004KT 10SM OVC005 11/10 A3017 RMK AO2 RAB23E33 SLP218 P0000 T01060100
KUIL 120651Z AUTO 36005KT 10SM OVC005 11/10 A3017 RMK AO2 RAB23E33 P0000
KUIL 120553Z AUTO 02004KT 9SM OVC004 11/10 A3018 RMK AO2 SLP219 T01060100 10128 20106 58005
KUIL 120533Z AUTO VRB03KT 7SM OVC004 11/10 A3018 RMK AO2 T01060100
KUIL 120453Z AUTO 34004KT 10SM OVC005 11/10 A3019 RMK AO2 SLP222 T01060100
KUIL 120353Z AUTO 34007KT 10SM OVC007 11/09 A3019 RMK AO2 SLP222 T01110094
KUIL 120308Z AUTO 34007KT 10SM OVC009 11/09 A3019 RMK AO2 CIG 008V013 T01110094
KUIL 120253Z AUTO 34006KT 10SM OVC012 11/09 A3019 RMK AO2 SLP224 T01110089 58006
KUIL 120245Z AUTO 34005KT 10SM BKN012 BKN110 12/09 A3019 RMK AO2 T01170089
KUIL 120153Z AUTO 32004KT 10SM FEW120 12/08 A3020 RMK AO2 SLP227 T01170083
KUIL 120053Z AUTO 34008KT 10SM FEW010 FEW120 12/08 A3021 RMK AO2 SLP232 T01170083
KUIL 112353Z AUTO 31008KT 270V330 10SM CLR 12/08 A3021 RMK AO2 SLP230 T01220083 10161 20122 56001